Time;durP1;ratioP1;P1;durP2;ratioP2;P2;SDS_P1;SDS_P2;PMS_P1;PMS_P2;Temp;Humidity;BMP_temperature;BMP_pressure;BME280_temperature;BME280_humidity;BME280_pressure;Samples;Min_cycle;Max_cycle;Signal;HPM_P1;HPM_P2
2023/09/12 00:01:55;;;;;;;11.88;5.50;;;;;;;19.66;87.93;100236.03;4907823;29;20475;-64
2023/09/12 00:04:59;;;;;;;9.45;5.32;;;;;;;19.64;88.14;100237.97;4919578;29;20051;-64
2023/09/12 00:08:03;;;;;;;18.50;6.13;;;;;;;19.55;89.08;100232.69;4908066;29;20075;-64
2023/09/12 00:11:10;;;;;;;13.05;5.95;;;;;;;19.53;88.92;100230.19;4919860;29;20494;-64
2023/09/12 00:14:18;;;;;;;16.85;5.88;;;;;;;19.49;89.29;100234.91;4908366;29;20059;-64
2023/09/12 00:17:21;;;;;;;13.13;5.70;;;;;;;19.48;89.58;100235.06;4907721;29;20047;-64
2023/09/12 00:20:25;;;;;;;11.38;5.88;;;;;;;19.46;89.83;100239.69;4919580;29;20055;-65
2023/09/12 00:23:28;;;;;;;16.23;5.43;;;;;;;19.52;89.51;100225.84;4919737;29;20047;-65
2023/09/12 00:26:33;;;;;;;12.13;5.57;;;;;;;19.50;89.45;100231.31;4919376;29;20158;-64
2023/09/12 00:29:36;;;;;;;13.43;6.30;;;;;;;19.40;90.15;100240.25;4919351;29;20593;-65
2023/09/12 00:32:39;;;;;;;14.25;6.22;;;;;;;19.37;91.11;100229.94;4919461;29;20078;-64
2023/09/12 00:35:43;;;;;;;15.80;5.60;;;;;;;19.46;90.40;100229.06;4919409;29;20050;-64
2023/09/12 00:38:49;;;;;;;14.32;6.25;;;;;;;19.47;90.02;100228.13;4919317;29;20047;-64
2023/09/12 00:41:52;;;;;;;14.82;5.30;;;;;;;19.44;90.20;100228.41;4919312;29;20098;-64
2023/09/12 00:44:56;;;;;;;13.80;6.00;;;;;;;19.49;90.12;100226.13;4907193;29;20500;-64
2023/09/12 00:48:02;;;;;;;10.95;5.63;;;;;;;19.49;89.48;100213.69;4902572;29;20150;-64
2023/09/12 00:51:05;;;;;;;15.40;6.32;;;;;;;19.48;89.77;100221.81;4919106;29;20459;-64
2023/09/12 00:54:09;;;;;;;11.00;5.50;;;;;;;19.39;89.98;100215.56;4919082;29;20526;-64
2023/09/12 00:57:13;;;;;;;12.95;5.28;;;;;;;19.32;90.33;100224.25;4919319;29;20054;-65
2023/09/12 01:00:16;;;;;;;14.38;6.35;;;;;;;19.26;90.54;100223.00;4917713;29;20160;-64
2023/09/12 01:03:19;;;;;;;8.55;5.43;;;;;;;19.22;90.88;100211.84;4918898;29;20142;-64
2023/09/12 01:06:26;;;;;;;14.07;5.90;;;;;;;19.24;90.84;100215.19;4918734;29;20047;-65
2023/09/12 01:09:29;;;;;;;18.40;6.15;;;;;;;19.17;91.11;100208.78;4918294;29;20042;-64
2023/09/12 01:12:33;;;;;;;13.57;5.70;;;;;;;19.19;91.04;100209.47;4906917;29;20215;-65
2023/09/12 01:15:36;;;;;;;14.93;5.82;;;;;;;19.26;90.62;100212.41;4918785;29;20051;-65
2023/09/12 01:18:42;;;;;;;18.23;6.07;;;;;;;19.20;90.67;100208.50;4918295;29;20138;-64
2023/09/12 01:21:54;;;;;;;8.32;5.28;;;;;;;19.26;90.49;100213.22;4918540;29;20051;-65
2023/09/12 01:25:01;;;;;;;10.52;5.70;;;;;;;19.26;90.39;100213.22;4918103;29;20055;-64
2023/09/12 01:28:07;;;;;;;17.63;5.65;;;;;;;19.16;90.81;100217.72;4918609;29;20059;-64
2023/09/12 01:31:12;;;;;;;11.48;6.07;;;;;;;19.15;91.25;100210.75;4906558;29;20470;-64
2023/09/12 01:34:16;;;;;;;13.07;5.40;;;;;;;19.14;91.08;100209.06;4906606;29;20132;-64
2023/09/12 01:37:19;;;;;;;14.40;6.30;;;;;;;19.14;91.10;100213.53;4918324;29;20087;-65
2023/09/12 01:40:34;;;;;;;11.27;5.57;;;;;;;19.17;91.13;100218.56;4918248;29;20107;-64
2023/09/12 01:43:42;;;;;;;17.13;5.88;;;;;;;19.11;91.49;100206.69;4906426;29;20095;-64
2023/09/12 01:46:49;;;;;;;11.85;5.25;;;;;;;18.98;92.24;100208.81;4917362;29;20050;-64
2023/09/12 01:49:57;;;;;;;13.93;6.47;;;;;;;18.97;91.86;100210.63;4918158;29;20099;-64
2023/09/12 01:53:00;;;;;;;13.40;6.22;;;;;;;18.88;93.04;100213.31;4918216;29;20047;-64
2023/09/12 01:56:04;;;;;;;11.80;5.65;;;;;;;18.98;92.42;100209.66;4906382;29;20495;-64
2023/09/12 01:59:07;;;;;;;11.82;5.72;;;;;;;18.96;91.79;100200.19;4906158;29;20107;-65
2023/09/12 02:02:10;;;;;;;11.85;5.22;;;;;;;18.97;91.54;100205.34;4917873;29;20102;-65
2023/09/12 02:05:22;;;;;;;14.13;6.10;;;;;;;18.99;91.27;100202.56;4917791;29;20051;-65
2023/09/12 02:08:25;;;;;;;15.07;6.00;;;;;;;19.01;91.51;100203.25;4917660;29;20046;-64
2023/09/12 02:11:28;;;;;;;12.90;5.78;;;;;;;19.00;90.80;100197.09;4905919;29;20051;-65
2023/09/12 02:14:32;;;;;;;14.27;5.95;;;;;;;18.93;90.99;100200.47;4906027;29;20047;-64
2023/09/12 02:17:38;;;;;;;18.33;6.47;;;;;;;18.92;91.01;100197.00;4905399;29;20047;-64
2023/09/12 02:20:45;;;;;;;11.68;5.20;;;;;;;18.79;92.28;100199.09;4905478;29;20051;-64
2023/09/12 02:23:48;;;;;;;14.57;5.43;;;;;;;18.82;92.07;100193.50;4917708;29;20459;-64
2023/09/12 02:26:52;;;;;;;11.13;5.68;;;;;;;18.90;90.99;100195.47;4906048;29;20521;-64
2023/09/12 02:29:55;;;;;;;15.63;5.95;;;;;;;18.86;91.25;100194.06;4917090;29;20124;-64
2023/09/12 02:32:59;;;;;;;8.45;4.50;;;;;;;18.80;91.75;100195.47;4905508;29;20103;-64
2023/09/12 02:36:02;;;;;;;14.55;5.90;;;;;;;18.78;91.78;100194.78;4917068;29;20047;-65
2023/09/12 02:39:05;;;;;;;18.15;6.00;;;;;;;18.76;91.93;100196.72;4917176;29;20099;-65
2023/09/12 02:42:08;;;;;;;10.70;6.20;;;;;;;18.67;92.36;100190.44;4917111;29;20050;-64
2023/09/12 02:45:30;;;;;;;11.63;5.97;;;;;;;18.72;92.18;100197.94;4916837;29;20054;-65
2023/09/12 02:48:33;;;;;;;12.25;5.60;;;;;;;18.73;91.83;100197.84;4917346;29;20406;-65
2023/09/12 02:51:41;;;;;;;12.25;5.68;;;;;;;18.72;91.93;100198.81;4916630;29;20051;-65
2023/09/12 02:54:44;;;;;;;10.57;5.65;;;;;;;18.66;92.08;100204.63;4905131;29;20096;-65
2023/09/12 02:57:47;;;;;;;10.50;5.07;;;;;;;18.66;92.47;100203.81;4916394;29;20142;-65
2023/09/12 03:00:54;;;;;;;13.05;5.75;;;;;;;18.65;92.20;100199.50;4916750;29;20067;-64
2023/09/12 03:03:57;;;;;;;12.30;5.68;;;;;;;18.64;91.85;100193.38;4901035;29;20458;-65
2023/09/12 03:07:00;;;;;;;12.15;5.30;;;;;;;18.63;91.70;100191.69;4916113;29;20047;-65
2023/09/12 03:10:04;;;;;;;11.35;5.20;;;;;;;18.63;92.03;100193.50;4912387;29;20047;-64
2023/09/12 03:13:07;;;;;;;16.50;5.53;;;;;;;18.66;91.88;100202.00;4896728;29;20115;-64
2023/09/12 03:16:11;;;;;;;14.23;7.07;;;;;;;18.60;92.51;100199.91;4904206;29;20554;-64
2023/09/12 03:19:14;;;;;;;15.85;5.20;;;;;;;18.58;92.55;100193.94;4898139;29;20056;-65
2023/09/12 03:22:18;;;;;;;14.60;5.97;;;;;;;18.63;91.97;100189.03;4909333;29;20486;-65
2023/09/12 03:25:21;;;;;;;16.45;6.72;;;;;;;18.59;92.37;100185.81;4904709;29;20139;-64
2023/09/12 03:28:24;;;;;;;13.25;5.15;;;;;;;18.58;92.95;100185.97;4916372;29;20475;-65
2023/09/12 03:31:28;;;;;;;11.63;5.47;;;;;;;18.57;92.77;100198.38;4916355;29;20108;-64
2023/09/12 03:34:32;;;;;;;10.70;5.88;;;;;;;18.53;93.33;100194.31;4904093;29;20466;-64
2023/09/12 03:37:39;;;;;;;12.88;5.63;;;;;;;18.54;93.13;100195.19;4916292;29;20080;-64
2023/09/12 03:40:42;;;;;;;12.75;5.97;;;;;;;18.49;93.15;100185.00;4904588;29;20087;-64
2023/09/12 03:43:46;;;;;;;10.60;5.85;;;;;;;18.49;93.25;100185.00;4913987;29;20051;-64
2023/09/12 03:46:49;;;;;;;10.75;6.13;;;;;;;18.48;93.26;100179.84;4904898;29;20051;-65
2023/09/12 03:49:52;;;;;;;11.25;5.53;;;;;;;18.48;93.12;100185.16;4916427;29;20043;-64
2023/09/12 03:52:56;;;;;;;8.65;5.25;;;;;;;18.50;92.93;100184.00;4916381;29;20565;-65
2023/09/12 03:55:59;;;;;;;12.77;5.25;;;;;;;18.51;92.54;100188.34;4904423;29;20047;-65
2023/09/12 03:59:03;;;;;;;12.10;5.30;;;;;;;18.52;92.40;100184.72;4904388;29;20079;-64
2023/09/12 04:02:06;;;;;;;9.35;5.20;;;;;;;18.43;92.85;100182.06;4916134;29;20046;-64
2023/09/12 04:05:10;;;;;;;10.90;5.43;;;;;;;18.42;92.76;100180.41;4916506;29;20051;-64
2023/09/12 04:08:13;;;;;;;9.85;5.22;;;;;;;18.34;92.89;100171.34;4904404;29;20414;-64
2023/09/12 04:11:17;;;;;;;12.90;5.32;;;;;;;18.30;93.53;100183.19;4916127;29;20112;-65
2023/09/12 04:14:21;;;;;;;11.70;5.25;;;;;;;18.26;93.77;100180.97;4916430;29;20090;-68
2023/09/12 04:17:24;;;;;;;12.45;6.47;;;;;;;18.35;93.32;100177.50;4904465;29;20055;-65
2023/09/12 04:20:27;;;;;;;11.63;5.38;;;;;;;18.32;93.69;100170.66;4897219;29;20083;-64
2023/09/12 04:23:31;;;;;;;13.30;5.93;;;;;;;18.43;92.99;100182.91;4885129;29;20526;-66
2023/09/12 04:26:34;;;;;;;11.63;6.00;;;;;;;18.45;92.84;100180.97;4885626;29;20127;-66
2023/09/12 04:29:39;;;;;;;12.80;5.72;;;;;;;18.42;93.30;100183.06;4897081;29;20411;-66
2023/09/12 04:32:42;;;;;;;10.90;5.05;;;;;;;18.45;92.89;100180.97;4885546;29;20045;-66
2023/09/12 04:35:46;;;;;;;11.43;5.70;;;;;;;18.26;94.90;100186.25;4897165;29;20044;-67
2023/09/12 04:38:51;;;;;;;15.70;5.43;;;;;;;18.36;94.16;100187.91;4896910;29;20048;-65
2023/09/12 04:41:55;;;;;;;12.13;6.03;;;;;;;18.42;93.56;100196.28;4885007;29;20080;-65
2023/09/12 04:44:58;;;;;;;11.50;5.45;;;;;;;18.44;93.41;100204.91;4898315;29;20185;-66
2023/09/12 04:48:02;;;;;;;16.65;5.93;;;;;;;18.43;93.36;100196.13;4900449;29;20108;-66
2023/09/12 04:51:05;;;;;;;13.13;5.50;;;;;;;18.41;93.63;100197.25;4888426;29;20060;-65
2023/09/12 04:54:09;;;;;;;11.73;5.82;;;;;;;18.36;94.07;100193.22;4900316;29;20104;-66
2023/09/12 04:57:12;;;;;;;12.20;6.63;;;;;;;18.33;94.36;100182.91;4900293;29;20050;-66
2023/09/12 05:00:15;;;;;;;10.13;5.75;;;;;;;18.19;95.60;100179.81;4899687;29;20109;-69
2023/09/12 05:03:19;;;;;;;13.07;5.93;;;;;;;18.08;97.04;100184.25;4898681;29;20099;-68
2023/09/12 05:06:22;;;;;;;16.48;6.50;;;;;;;18.20;96.21;100179.69;4886650;29;20514;-69
2023/09/12 05:09:26;;;;;;;14.05;6.07;;;;;;;18.07;97.08;100174.66;4897930;29;20067;-69
2023/09/12 05:12:38;;;;;;;10.88;5.78;;;;;;;18.00;97.36;100180.66;4898567;29;20047;-69
2023/09/12 05:15:42;;;;;;;13.73;5.85;;;;;;;18.00;97.63;100175.34;4897747;29;20460;-68
2023/09/12 05:18:45;;;;;;;12.10;6.55;;;;;;;17.97;97.58;100173.81;4891654;29;20162;-67
2023/09/12 05:21:49;;;;;;;10.63;6.20;;;;;;;18.11;96.82;100167.28;4916782;29;20047;-65
2023/09/12 05:24:52;;;;;;;13.32;5.68;;;;;;;18.19;95.58;100171.88;4915850;29;20078;-65
2023/09/12 05:28:20;;;;;;;15.18;5.00;;;;;;;18.25;94.52;100176.63;4898572;29;20059;-65
2023/09/12 05:31:26;;;;;;;15.60;6.22;;;;;;;18.28;94.15;100174.56;4903796;29;20068;-66
2023/09/12 05:34:29;;;;;;;9.18;5.25;;;;;;;18.18;94.80;100168.41;4904616;29;20063;-65
2023/09/12 05:37:33;;;;;;;15.90;6.28;;;;;;;18.22;94.44;100171.59;4904221;29;20051;-66
2023/09/12 05:40:36;;;;;;;13.35;6.40;;;;;;;18.32;94.04;100175.94;4903841;29;20530;-66
2023/09/12 05:43:40;;;;;;;13.70;6.88;;;;;;;18.43;93.16;100179.44;4916168;29;20051;-65
2023/09/12 05:47:08;;;;;;;11.85;5.88;;;;;;;18.50;92.74;100177.88;4904303;29;20293;-66
2023/09/12 05:50:12;;;;;;;9.07;4.85;;;;;;;18.35;93.40;100185.44;4901257;29;20059;-65
2023/09/12 05:53:16;;;;;;;13.88;6.10;;;;;;;18.35;93.78;100196.00;4902501;29;20422;-65
2023/09/12 05:56:20;;;;;;;15.02;6.22;;;;;;;18.37;94.13;100188.75;4913634;29;20103;-65
2023/09/12 05:59:23;;;;;;;15.13;5.88;;;;;;;18.35;94.10;100193.38;4903454;29;20082;-65
2023/09/12 06:02:27;;;;;;;9.60;4.97;;;;;;;18.40;93.89;100193.78;4903566;29;20054;-65
2023/09/12 06:05:30;;;;;;;11.55;5.60;;;;;;;18.41;93.66;100194.59;4904198;29;20122;-65
2023/09/12 06:08:34;;;;;;;8.85;4.88;;;;;;;18.44;93.71;100199.63;4915369;29;20063;-65
2023/09/12 06:11:37;;;;;;;10.40;5.65;;;;;;;18.49;93.40;100208.00;4915063;29;20096;-65
2023/09/12 06:14:40;;;;;;;11.60;6.13;;;;;;;18.48;93.42;100207.16;4915313;29;20047;-66
2023/09/12 06:17:43;;;;;;;10.38;5.75;;;;;;;18.55;93.38;100200.34;4915859;29;20047;-65
2023/09/12 06:20:46;;;;;;;18.25;5.65;;;;;;;18.62;93.67;100200.59;4916122;29;20422;-66
2023/09/12 06:24:14;;;;;;;11.48;5.20;;;;;;;18.63;93.76;100196.13;4915469;29;20098;-65
2023/09/12 06:27:20;;;;;;;13.38;6.38;;;;;;;18.70;93.47;100199.94;4915030;29;20446;-65
2023/09/12 06:30:23;;;;;;;16.85;6.45;;;;;;;18.67;93.60;100190.44;4913514;29;20115;-66
2023/09/12 06:33:28;;;;;;;13.90;5.35;;;;;;;18.70;93.33;100198.09;4914003;29;20047;-66
2023/09/12 06:36:31;;;;;;;13.15;6.32;;;;;;;18.69;93.27;100201.72;4914355;29;20183;-66
2023/09/12 06:39:35;;;;;;;12.18;6.45;;;;;;;18.77;93.21;100196.59;4915051;29;20055;-66
2023/09/12 06:42:38;;;;;;;17.05;6.15;;;;;;;18.85;92.85;100203.81;4915852;29;20132;-66
2023/09/12 06:45:41;;;;;;;11.02;5.85;;;;;;;18.92;93.12;100210.25;4915629;29;20116;-66
2023/09/12 06:48:45;;;;;;;11.38;6.40;;;;;;;18.77;94.84;100207.19;4915610;29;20051;-78
2023/09/12 06:51:48;;;;;;;9.23;5.85;;;;;;;18.80;94.79;100200.78;4915391;29;20394;-77
2023/09/12 06:54:51;;;;;;;12.25;6.88;;;;;;;18.88;95.09;100208.84;4915449;29;20568;-78
2023/09/12 06:57:56;;;;;;;12.23;5.88;;;;;;;18.96;94.99;100200.19;4915096;29;20398;-78
2023/09/12 07:01:04;;;;;;;10.00;6.35;;;;;;;19.14;94.85;100209.06;4915400;29;20478;-78
2023/09/12 07:04:07;;;;;;;14.98;6.55;;;;;;;19.16;95.64;100204.47;4915092;29;20054;-77
2023/09/12 07:07:10;;;;;;;11.77;6.80;;;;;;;19.09;96.70;100211.31;4915187;29;20062;-77
2023/09/12 07:10:13;;;;;;;13.57;6.78;;;;;;;19.12;96.68;100203.09;4914677;29;20509;-75
2023/09/12 07:13:17;;;;;;;10.68;5.95;;;;;;;19.25;96.74;100206.25;4914917;29;20098;-75
2023/09/12 07:16:20;;;;;;;7.82;5.90;;;;;;;19.29;96.52;100206.81;4914944;29;20422;-78
2023/09/12 07:19:24;;;;;;;14.85;6.53;;;;;;;19.50;94.75;100203.97;4914500;29;20529;-75
2023/09/12 07:22:27;;;;;;;11.20;6.50;;;;;;;19.54;94.17;100204.50;4914742;29;20043;-71
2023/09/12 07:25:30;;;;;;;18.02;7.38;;;;;;;19.69;93.64;100198.59;4914780;29;20067;-75
2023/09/12 07:28:35;;;;;;;16.65;7.07;;;;;;;19.87;92.96;100200.44;4914895;29;20047;-75
2023/09/12 07:31:39;;;;;;;13.68;7.32;;;;;;;20.01;94.38;100188.53;4914535;29;20512;-75
2023/09/12 07:34:48;;;;;;;15.27;6.22;;;;;;;20.19;92.57;100186.69;4914777;29;20140;-75
2023/09/12 07:37:51;;;;;;;11.55;6.43;;;;;;;20.32;91.23;100189.81;4914695;29;20058;-75
2023/09/12 07:40:57;;;;;;;19.27;8.98;;;;;;;20.36;89.86;100191.19;4903318;29;20042;-75
2023/09/12 07:44:01;;;;;;;15.93;7.47;;;;;;;20.37;90.13;100192.03;4914495;29;20131;-74
2023/09/12 07:47:05;;;;;;;19.13;7.68;;;;;;;20.42;90.44;100195.06;4914412;29;20478;-75
2023/09/12 07:50:09;;;;;;;22.75;7.40;;;;;;;20.37;90.22;100198.19;4914702;29;20047;-72
2023/09/12 07:53:11;;;;;;;14.52;7.00;;;;;;;20.50;90.45;100205.75;4914764;29;20062;-70
2023/09/12 07:56:15;;;;;;;18.25;7.43;;;;;;;20.58;89.19;100210.34;4914461;29;20051;-70
2023/09/12 07:59:18;;;;;;;21.98;7.30;;;;;;;20.69;88.28;100202.13;4914193;29;20571;-69
2023/09/12 08:02:21;;;;;;;25.45;7.75;;;;;;;20.74;88.18;100202.53;4914494;29;20102;-67
2023/09/12 08:05:25;;;;;;;17.17;7.97;;;;;;;20.89;88.91;100205.44;4914392;29;20047;-68
2023/09/12 08:08:29;;;;;;;17.10;7.90;;;;;;;21.07;87.20;100195.63;4914443;29;20043;-66
2023/09/12 08:11:32;;;;;;;18.27;7.28;;;;;;;21.23;85.23;100199.38;4914311;29;20420;-64
2023/09/12 08:14:35;;;;;;;19.55;7.50;;;;;;;21.32;84.34;100193.13;4914173;29;20047;-66
2023/09/12 08:17:39;;;;;;;20.75;8.45;;;;;;;21.31;83.41;100199.41;4914441;29;20072;-66
2023/09/12 08:20:48;;;;;;;15.18;7.15;;;;;;;21.38;83.17;100202.31;4917115;29;20147;-66
2023/09/12 08:23:51;;;;;;;23.42;7.65;;;;;;;21.46;83.43;100203.19;4917875;29;20076;-67
2023/09/12 08:26:54;;;;;;;17.95;8.00;;;;;;;21.51;82.39;100197.41;4917841;29;20066;-65
2023/09/12 08:29:57;;;;;;;19.55;8.38;;;;;;;21.57;83.30;100202.09;4918101;29;20163;-63
2023/09/12 08:33:03;;;;;;;20.52;7.82;;;;;;;21.59;82.83;100205.41;4917939;29;20111;-65
2023/09/12 08:36:06;;;;;;;27.27;8.90;;;;;;;21.68;81.74;100199.13;4917629;29;20562;-66
2023/09/12 08:39:13;;;;;;;30.50;8.82;;;;;;;21.78;83.08;100197.19;4917696;29;20042;-65
2023/09/12 08:42:17;;;;;;;19.35;7.93;;;;;;;21.81;81.56;100204.84;4905796;29;20119;-65
2023/09/12 08:45:20;;;;;;;15.68;8.70;;;;;;;21.87;81.62;100200.72;4917785;29;20047;-64
2023/09/12 08:48:25;;;;;;;22.27;8.75;;;;;;;21.94;80.52;100209.72;4917620;29;20138;-65
2023/09/12 08:51:28;;;;;;;22.02;8.98;;;;;;;21.86;79.22;100200.84;4917541;29;20078;-67
2023/09/12 08:54:34;;;;;;;20.20;9.15;;;;;;;21.97;80.66;100201.41;4916365;29;20055;-64
2023/09/12 08:57:42;;;;;;;24.60;9.07;;;;;;;22.12;79.89;100208.78;4917340;29;20537;-64
2023/09/12 09:00:45;;;;;;;23.20;8.88;;;;;;;22.25;81.31;100209.16;4917252;29;20047;-66
2023/09/12 09:03:48;;;;;;;17.92;8.65;;;;;;;22.41;81.51;100201.19;4917173;29;20096;-64
2023/09/12 09:06:54;;;;;;;22.25;8.32;;;;;;;22.53;79.53;100204.38;4917012;29;20050;-67
2023/09/12 09:09:58;;;;;;;22.45;9.55;;;;;;;22.57;78.84;100204.88;4917103;29;20076;-64
2023/09/12 09:13:01;;;;;;;34.70;12.13;;;;;;;22.68;79.30;100201.88;4917095;29;20087;-63
2023/09/12 09:16:21;;;;;;;20.35;9.35;;;;;;;22.81;77.00;100196.88;4917018;29;20523;-67
2023/09/12 09:19:40;;;;;;;28.15;9.07;;;;;;;22.86;77.31;100207.88;4916615;29;20058;-63
2023/09/12 09:22:56;;;;;;;16.33;7.28;;;;;;;22.93;77.34;100194.69;4917092;29;20566;-67
2023/09/12 09:25:59;;;;;;;21.08;8.18;;;;;;;22.96;76.90;100195.22;4916826;29;20051;-67
2023/09/12 09:29:08;;;;;;;18.20;7.63;;;;;;;23.07;76.22;100201.22;4916976;29;20514;-67
2023/09/12 09:32:17;;;;;;;13.20;7.20;;;;;;;23.15;75.88;100198.53;4915509;29;20078;-67
2023/09/12 09:35:20;;;;;;;22.05;7.88;;;;;;;23.18;75.09;100193.69;4916801;29;20076;-67
2023/09/12 09:38:24;;;;;;;18.33;6.95;;;;;;;23.28;75.54;100190.84;4916392;29;20059;-66
2023/09/12 09:41:27;;;;;;;15.07;6.45;;;;;;;23.41;75.90;100183.13;4916889;29;20158;-66
2023/09/12 09:44:32;;;;;;;30.10;9.38;;;;;;;23.51;75.17;100182.09;4916293;29;20047;-66
2023/09/12 09:47:34;;;;;;;14.88;6.78;;;;;;;23.70;75.41;100179.03;4916524;29;20123;-65
2023/09/12 09:50:38;;;;;;;20.70;8.05;;;;;;;23.70;73.91;100180.88;4916252;29;20181;-65
2023/09/12 09:53:43;;;;;;;21.30;6.97;;;;;;;23.67;73.94;100174.00;4916328;29;20043;-65
2023/09/12 09:56:53;;;;;;;22.27;7.80;;;;;;;23.85;73.91;100179.97;4916332;29;20047;-65
2023/09/12 09:59:56;;;;;;;21.13;7.10;;;;;;;24.01;73.15;100167.53;4916049;29;20087;-67
2023/09/12 10:03:03;;;;;;;15.65;7.63;;;;;;;24.08;70.75;100165.81;4916387;29;20055;-65
2023/09/12 10:06:09;;;;;;;16.77;6.95;;;;;;;24.04;71.04;100162.69;4916356;29;20166;-67
2023/09/12 10:09:14;;;;;;;17.75;6.95;;;;;;;24.17;69.45;100162.09;4916810;29;20082;-68
2023/09/12 10:12:17;;;;;;;11.68;6.38;;;;;;;24.14;70.65;100157.94;4916084;29;20055;-66
2023/09/12 10:15:22;;;;;;;16.33;6.45;;;;;;;24.18;68.31;100163.75;4916041;29;20055;-70
2023/09/12 10:18:29;;;;;;;13.85;6.65;;;;;;;24.22;68.28;100166.91;4915695;29;20423;-66
2023/09/12 10:21:34;;;;;;;12.18;6.93;;;;;;;24.27;67.62;100168.03;4915827;29;20114;-66
2023/09/12 10:24:39;;;;;;;14.68;6.45;;;;;;;24.31;66.09;100164.03;4896551;29;20070;-66
2023/09/12 10:27:42;;;;;;;17.58;7.13;;;;;;;24.46;66.09;100164.09;4915532;29;20534;-67
2023/09/12 10:30:46;;;;;;;15.35;7.35;;;;;;;24.41;66.09;100162.91;4915577;29;20047;-67
2023/09/12 10:33:49;;;;;;;14.63;8.18;;;;;;;24.37;67.56;100152.59;4915660;29;20569;-66
2023/09/12 10:36:55;;;;;;;14.25;7.75;;;;;;;24.52;67.78;100150.00;4915727;29;20051;-63
2023/09/12 10:40:00;;;;;;;15.73;7.80;;;;;;;24.60;67.26;100151.75;4898722;29;20142;-69
2023/09/12 10:43:05;;;;;;;17.00;7.35;;;;;;;24.59;64.55;100152.78;4910957;29;20463;-67
2023/09/12 10:46:09;;;;;;;17.15;6.82;;;;;;;24.77;65.11;100139.09;4915733;29;20051;-66
2023/09/12 10:49:14;;;;;;;17.02;8.10;;;;;;;24.82;64.03;100139.38;4915554;29;20055;-66
2023/09/12 10:52:25;;;;;;;16.88;8.07;;;;;;;24.80;63.91;100144.09;4915561;29;20055;-65
2023/09/12 10:55:28;;;;;;;13.23;7.72;;;;;;;24.81;63.96;100138.53;4915212;29;20092;-67
2023/09/12 10:58:32;;;;;;;9.23;6.07;;;;;;;24.90;64.54;100141.16;4915020;29;20581;-66
2023/09/12 11:01:37;;;;;;;14.82;6.80;;;;;;;25.10;62.46;100130.72;4915154;29;20474;-65
2023/09/12 11:04:40;;;;;;;14.25;7.45;;;;;;;25.21;62.41;100133.81;4915140;29;20522;-67
2023/09/12 11:07:45;;;;;;;15.98;6.90;;;;;;;25.32;61.37;100127.16;4915264;29;20067;-67
2023/09/12 11:11:16;;;;;;;11.30;6.03;;;;;;;25.49;60.82;100130.47;4915071;29;20047;-68
2023/09/12 11:14:20;;;;;;;17.40;7.07;;;;;;;25.48;62.05;100136.84;4914984;29;20476;-67
2023/09/12 11:17:23;;;;;;;12.20;5.93;;;;;;;25.41;61.84;100134.09;4914974;29;20099;-67
2023/09/12 11:20:50;;;;;;;13.95;6.78;;;;;;;25.53;61.75;100142.47;4914935;29;20135;-67
2023/09/12 11:23:54;;;;;;;8.80;6.88;;;;;;;25.59;61.46;100140.88;4914995;29;20055;-67
2023/09/12 11:27:09;;;;;;;11.88;7.10;;;;;;;25.70;61.03;100149.25;4914999;29;20103;-67
2023/09/12 11:30:13;;;;;;;12.98;7.15;;;;;;;25.77;60.22;100140.47;4914579;29;20051;-66
2023/09/12 11:33:16;;;;;;;14.60;6.80;;;;;;;25.69;60.68;100147.63;4914877;29;20117;-67
2023/09/12 11:36:23;;;;;;;13.45;6.82;;;;;;;25.68;60.27;100145.09;4914820;29;20471;-68
2023/09/12 11:39:39;;;;;;;16.30;7.05;;;;;;;25.69;60.20;100152.13;4914773;29;20124;-70
2023/09/12 11:42:52;;;;;;;13.07;7.35;;;;;;;25.48;61.93;100156.41;4914969;29;20490;-68
2023/09/12 11:45:57;;;;;;;12.23;7.03;;;;;;;25.51;61.57;100160.56;4914728;29;20463;-65
2023/09/12 11:49:02;;;;;;;15.30;7.28;;;;;;;25.39;61.67;100156.69;4914581;29;20115;-70
2023/09/12 11:52:12;;;;;;;12.93;7.47;;;;;;;25.27;62.61;100164.34;4914502;29;20155;-71
2023/09/12 11:55:22;;;;;;;12.30;7.05;;;;;;;25.17;63.00;100167.28;4916382;29;20059;-71
2023/09/12 11:58:27;;;;;;;13.63;7.72;;;;;;;25.13;62.83;100166.00;4918395;29;20508;-71
2023/09/12 12:01:30;;;;;;;14.40;7.80;;;;;;;25.03;63.52;100163.56;4918263;29;20063;-71
2023/09/12 12:04:34;;;;;;;18.25;8.57;;;;;;;24.97;65.23;100158.94;4918519;29;20189;-71
2023/09/12 12:07:38;;;;;;;14.80;7.40;;;;;;;24.86;66.29;100140.69;4918073;29;20423;-71
2023/09/12 12:10:41;;;;;;;14.93;7.93;;;;;;;24.90;65.44;100114.41;4918375;29;20192;-71
2023/09/12 12:13:44;;;;;;;15.30;8.88;;;;;;;24.75;75.90;100133.91;4918050;29;20139;-70
2023/09/12 12:16:48;;;;;;;14.00;9.20;;;;;;;24.61;80.91;100148.09;4918294;29;20103;-71
2023/09/12 12:19:52;;;;;;;18.27;9.18;;;;;;;24.59;79.59;100156.28;4917817;29;20070;-71
2023/09/12 12:22:56;;;;;;;13.10;8.18;;;;;;;24.57;78.74;100152.16;4918090;29;20051;-71
2023/09/12 12:26:18;;;;;;;15.90;8.57;;;;;;;24.28;78.81;100156.34;4917941;29;20367;-71
2023/09/12 12:29:22;;;;;;;13.80;8.63;;;;;;;24.23;75.28;100160.56;4918129;29;20136;-70
2023/09/12 12:36:44;;;;;;;15.68;8.35;;;;;;;24.23;78.27;100150.69;4916611;29;20043;-72
2023/09/12 12:39:48;;;;;;;17.17;8.90;;;;;;;24.23;79.06;100156.03;4904886;29;20561;-71
2023/09/12 12:42:51;;;;;;;13.02;9.57;;;;;;;24.28;79.17;100131.47;4916673;29;20107;-72
2023/09/12 12:45:58;;;;;;;16.23;9.70;;;;;;;24.33;80.88;100129.91;4916598;29;20058;-71
2023/09/12 12:49:03;;;;;;;18.35;9.88;;;;;;;24.43;85.82;100144.91;4917234;29;20107;-71
2023/09/12 12:52:09;;;;;;;16.60;9.88;;;;;;;24.34;85.35;100144.94;4917546;29;20086;-73
2023/09/12 12:55:14;;;;;;;16.63;9.73;;;;;;;24.07;84.22;100166.84;4916306;29;20458;-73
2023/09/12 12:58:17;;;;;;;21.75;11.52;;;;;;;23.96;86.18;100148.53;4917328;29;20510;-73
2023/09/12 13:01:21;;;;;;;13.13;9.38;;;;;;;24.03;84.88;100154.84;4905652;29;20589;-75
2023/09/12 13:04:24;;;;;;;17.25;8.88;;;;;;;24.12;83.43;100137.75;4917074;29;20051;-72
2023/09/12 13:07:28;;;;;;;11.38;8.85;;;;;;;25.52;76.42;100141.63;4916134;29;20103;-74
2023/09/12 13:10:31;;;;;;;13.50;9.10;;;;;;;26.93;69.40;100130.44;4917465;29;20064;-71
2023/09/12 13:13:36;;;;;;;11.65;9.20;;;;;;;26.20;70.41;100128.81;4917160;29;20047;-70
2023/09/12 13:16:40;;;;;;;16.80;9.48;;;;;;;26.34;69.79;100120.91;4916799;29;20148;-69
2023/09/12 13:19:43;;;;;;;11.98;9.15;;;;;;;25.71;72.37;100108.06;4916394;29;20067;-68
2023/09/12 13:22:47;;;;;;;15.82;10.23;;;;;;;25.32;77.52;100112.97;4917447;29;20115;-68
2023/09/12 13:25:51;;;;;;;18.73;10.75;;;;;;;25.03;78.12;100117.28;4917021;29;20067;-68
2023/09/12 13:29:14;;;;;;;15.93;8.95;;;;;;;25.27;73.14;100117.03;4917282;29;20047;-68
2023/09/12 13:32:18;;;;;;;18.23;8.90;;;;;;;26.42;66.21;100120.78;4916839;29;20148;-68
2023/09/12 13:35:25;;;;;;;16.63;9.32;;;;;;;33.43;45.67;100106.41;4916787;29;20090;-68
2023/09/12 13:38:28;;;;;;;12.85;7.50;;;;;;;35.17;40.10;100104.72;4916747;29;20043;-68
2023/09/12 13:41:32;;;;;;;15.23;9.07;;;;;;;35.54;37.34;100103.28;4914146;29;20051;-68
2023/09/12 13:44:51;;;;;;;11.77;8.65;;;;;;;35.20;38.21;100102.56;4914444;29;20407;-69
2023/09/12 13:47:59;;;;;;;11.57;8.45;;;;;;;33.75;40.53;100103.25;4916240;29;20168;-68
2023/09/12 13:51:02;;;;;;;12.32;8.32;;;;;;;37.52;35.04;100086.72;4899893;29;20111;-68
2023/09/12 13:54:07;;;;;;;12.32;7.38;;;;;;;39.02;32.20;100086.41;4899173;29;20080;-69
2023/09/12 13:57:11;;;;;;;13.18;7.32;;;;;;;36.77;35.35;100083.38;4897865;29;20510;-68
2023/09/12 14:00:33;;;;;;;15.05;8.55;;;;;;;37.15;35.14;100084.94;4901914;29;20487;-68
2023/09/12 14:03:36;;;;;;;13.63;8.75;;;;;;;31.42;46.64;100095.56;4916161;29;20138;-68
2023/09/12 14:06:40;;;;;;;16.15;9.25;;;;;;;31.44;46.65;100086.19;4916057;29;20075;-68
2023/09/12 14:09:43;;;;;;;11.63;8.40;;;;;;;30.98;48.05;100097.50;4916250;29;20078;-68
2023/09/12 14:12:50;;;;;;;11.88;8.73;;;;;;;35.80;37.96;100080.72;4916040;29;20526;-67
2023/09/12 14:15:53;;;;;;;12.05;8.02;;;;;;;36.07;38.48;100074.44;4915601;29;20183;-65